createdAt,value
2022-09-30T00:00:59.721Z,0.65
2022-09-30T00:03:28.153Z,0.82
2022-09-30T00:06:08.500Z,0.63
2022-09-30T00:08:39.410Z,1.10
2022-09-30T00:11:34.348Z,0.45
2022-09-30T00:14:01.846Z,0.90
2022-09-30T00:16:32.981Z,0.70
2022-09-30T00:19:00.546Z,1.42
2022-09-30T00:21:28.710Z,0.60
2022-09-30T00:23:56.774Z,1.15
2022-09-30T00:26:24.320Z,0.95
2022-09-30T00:28:56.169Z,0.70
2022-09-30T00:31:24.196Z,0.73
2022-09-30T00:34:07.038Z,0.90
2022-09-30T00:36:38.974Z,1.00
2022-09-30T00:39:08.108Z,0.77
2022-09-30T00:41:35.195Z,0.77
2022-09-30T00:44:02.301Z,0.80
2022-09-30T00:46:36.751Z,0.93
2022-09-30T00:49:19.524Z,0.63
2022-09-30T00:51:49.199Z,0.80
2022-09-30T00:54:28.418Z,0.65
2022-09-30T00:56:58.217Z,0.82
2022-09-30T00:59:27.565Z,0.50
2022-09-30T01:01:54.733Z,0.57
2022-09-30T01:04:23.550Z,0.70
2022-09-30T01:06:50.830Z,0.65
2022-09-30T01:09:18.357Z,0.73
2022-09-30T01:11:46.123Z,0.90
2022-09-30T01:14:17.864Z,0.70
2022-09-30T01:17:03.490Z,0.80
2022-09-30T01:20:03.356Z,0.60
2022-09-30T01:22:45.421Z,0.50
2022-09-30T01:25:35.561Z,0.98
2022-09-30T01:28:20.690Z,0.82
2022-09-30T01:31:32.356Z,0.75
2022-09-30T01:34:02.254Z,0.60
2022-09-30T01:36:41.219Z,0.68
2022-09-30T01:39:11.404Z,0.40
2022-09-30T01:41:44.164Z,0.60
2022-09-30T01:44:16.188Z,0.68
2022-09-30T01:46:45.396Z,0.40
2022-09-30T01:49:33.535Z,0.77
2022-09-30T01:52:14.564Z,0.95
2022-09-30T01:54:44.220Z,0.60
2022-09-30T01:57:12.134Z,0.77
2022-09-30T01:59:57.284Z,0.75
2022-09-30T02:02:28.738Z,0.65
2022-09-30T02:04:57.582Z,0.95
2022-09-30T02:07:33.290Z,0.75
2022-09-30T02:10:03.360Z,0.73
2022-09-30T02:12:31.979Z,0.70
2022-09-30T02:15:13.943Z,1.02
2022-09-30T02:17:44.401Z,0.50
2022-09-30T02:20:14.281Z,0.75
2022-09-30T02:22:46.843Z,0.40
2022-09-30T02:25:26.010Z,0.75
2022-09-30T02:27:59.134Z,0.60
2022-09-30T02:30:26.237Z,0.68
2022-09-30T02:32:59.204Z,0.57
2022-09-30T02:35:38.738Z,0.77
2022-09-30T02:38:21.319Z,0.60
2022-09-30T02:40:55.047Z,0.75
2022-09-30T02:43:22.014Z,0.95
2022-09-30T02:45:59.720Z,0.70
2022-09-30T02:48:31.416Z,0.45
2022-09-30T02:51:08.818Z,0.70
2022-09-30T02:53:50.848Z,0.63
2022-09-30T02:56:31.249Z,0.47
2022-09-30T02:58:58.317Z,1.27
2022-09-30T03:01:25.401Z,0.98
2022-09-30T03:03:56.627Z,0.70
2022-09-30T03:06:23.745Z,0.98
2022-09-30T03:08:52.392Z,0.60
2022-09-30T03:11:23.814Z,0.70
2022-09-30T03:14:04.058Z,0.32
2022-09-30T03:16:46.898Z,1.05
2022-09-30T03:19:42.991Z,0.60
2022-09-30T03:22:29.727Z,0.97
2022-09-30T03:25:16.277Z,0.70
2022-09-30T03:28:04.809Z,0.57
2022-09-30T03:30:32.728Z,0.52
2022-09-30T03:33:09.716Z,0.73
2022-09-30T03:35:56.364Z,1.10
2022-09-30T03:38:29.619Z,0.73
2022-09-30T03:41:12.968Z,0.90
2022-09-30T03:44:10.988Z,0.90
2022-09-30T03:46:50.298Z,0.70
2022-09-30T03:49:21.471Z,0.88
2022-09-30T03:51:50.943Z,0.80
2022-09-30T03:54:18.206Z,0.95
2022-09-30T03:56:45.202Z,0.85
2022-09-30T03:59:13.316Z,1.20
2022-09-30T04:01:40.571Z,0.80
2022-09-30T04:04:07.559Z,0.95
2022-09-30T04:06:34.533Z,1.00
2022-09-30T04:09:01.760Z,0.90
2022-09-30T04:11:28.803Z,0.82
2022-09-30T04:13:55.876Z,0.80
2022-09-30T04:16:23.267Z,0.85
2022-09-30T04:18:50.866Z,0.88
2022-09-30T04:21:18.045Z,1.00
2022-09-30T04:23:45.112Z,0.82
2022-09-30T04:26:13.600Z,0.95
2022-09-30T04:28:40.594Z,1.60
2022-09-30T04:31:07.969Z,0.73
2022-09-30T04:33:35.246Z,1.00
2022-09-30T04:36:02.404Z,1.00
2022-09-30T04:38:29.907Z,0.80
2022-09-30T04:40:56.891Z,0.63
2022-09-30T04:43:24.446Z,1.73
2022-09-30T04:45:55.144Z,1.40
2022-09-30T04:48:24.673Z,0.93
2022-09-30T04:50:51.716Z,1.00
2022-09-30T04:53:18.739Z,1.25
2022-09-30T04:55:45.910Z,1.15
2022-09-30T04:58:13.008Z,1.40
2022-09-30T05:00:40.054Z,1.30
2022-09-30T05:03:07.252Z,0.60
2022-09-30T05:05:34.229Z,1.17
2022-09-30T05:08:04.714Z,1.17
2022-09-30T05:10:32.098Z,1.15
2022-09-30T05:12:59.432Z,1.05
2022-09-30T05:15:26.532Z,1.10
2022-09-30T05:17:53.909Z,1.48
2022-09-30T05:20:21.910Z,1.70
2022-09-30T05:22:54.824Z,1.05
2022-09-30T05:25:21.838Z,1.73
2022-09-30T05:27:50.056Z,1.67
2022-09-30T05:30:18.064Z,1.92
2022-09-30T05:32:46.093Z,1.83
2022-09-30T05:35:13.228Z,2.00
2022-09-30T05:37:40.363Z,2.50
2022-09-30T05:40:08.652Z,2.47
2022-09-30T05:42:36.959Z,3.22
2022-09-30T05:45:07.426Z,3.50
2022-09-30T05:47:34.716Z,3.25
2022-09-30T05:50:01.766Z,3.47
2022-09-30T05:52:29.262Z,3.35
2022-09-30T05:54:57.627Z,3.20
2022-09-30T05:57:25.634Z,2.90
2022-09-30T05:59:52.899Z,3.28
2022-09-30T06:02:20.233Z,2.78
2022-09-30T06:04:47.555Z,3.65
2022-09-30T06:07:14.975Z,3.20
2022-09-30T06:09:46.068Z,3.95
2022-09-30T06:12:15.524Z,4.13
2022-09-30T06:14:42.449Z,5.07
2022-09-30T06:17:09.540Z,4.40
2022-09-30T06:19:36.771Z,4.93
2022-09-30T06:22:03.844Z,4.05
2022-09-30T06:24:58.096Z,4.68
2022-09-30T06:27:25.158Z,4.80
2022-09-30T06:29:52.247Z,5.30
2022-09-30T06:32:19.727Z,5.65
2022-09-30T06:34:46.916Z,5.53
2022-09-30T06:37:16.180Z,5.60
2022-09-30T06:39:43.461Z,5.32
2022-09-30T06:42:12.069Z,3.88
2022-09-30T06:44:50.481Z,3.35
2022-09-30T06:47:25.222Z,4.35
2022-09-30T06:49:54.578Z,4.60
2022-09-30T06:52:23.230Z,3.33
2022-09-30T06:54:51.263Z,2.88
2022-09-30T06:57:22.662Z,3.38
2022-09-30T06:59:50.741Z,4.72
2022-09-30T07:02:17.972Z,3.95
2022-09-30T07:04:45.299Z,3.33
2022-09-30T07:07:12.462Z,3.70
2022-09-30T07:09:40.230Z,3.95
2022-09-30T07:12:07.734Z,3.63
2022-09-30T07:14:36.060Z,3.20
2022-09-30T07:17:04.623Z,4.03
2022-09-30T07:19:34.638Z,3.28
2022-09-30T07:22:21.916Z,2.97
2022-09-30T07:24:49.247Z,3.70
2022-09-30T07:27:16.368Z,3.38
2022-09-30T07:30:07.804Z,3.88
2022-09-30T07:32:31.989Z,3.92
2022-09-30T07:34:59.142Z,3.90
2022-09-30T07:37:26.368Z,4.82
2022-09-30T07:39:53.472Z,4.88
2022-09-30T07:42:22.760Z,4.53
2022-09-30T07:44:51.756Z,4.65
2022-09-30T07:47:19.208Z,4.38
2022-09-30T07:49:46.296Z,4.53
2022-09-30T07:52:13.530Z,5.45
2022-09-30T07:54:44.227Z,4.93
2022-09-30T07:57:12.814Z,4.57
2022-09-30T07:59:40.664Z,4.03
2022-09-30T08:02:08.476Z,4.15
2022-09-30T08:04:38.139Z,4.57
2022-09-30T08:07:07.445Z,4.82
2022-09-30T08:09:35.502Z,3.92
2022-09-30T08:12:04.004Z,4.10
2022-09-30T08:14:31.876Z,4.25
2022-09-30T08:17:00.539Z,4.30
2022-09-30T08:19:30.552Z,3.95
2022-09-30T08:21:57.925Z,4.05
2022-09-30T08:24:25.463Z,3.42
2022-09-30T08:26:52.897Z,3.42
2022-09-30T08:29:35.727Z,3.03
2022-09-30T08:32:07.430Z,2.30
2022-09-30T08:34:35.645Z,2.05
2022-09-30T08:37:08.711Z,2.92
2022-09-30T08:39:39.822Z,2.35
2022-09-30T08:42:36.763Z,2.28
2022-09-30T08:45:28.791Z,1.92
2022-09-30T08:50:58.078Z,1.88
2022-09-30T08:53:43.893Z,1.42
2022-09-30T08:56:17.708Z,1.40
2022-09-30T08:58:44.940Z,1.50
2022-09-30T09:01:28.861Z,1.40
2022-09-30T09:03:56.014Z,1.38
2022-09-30T09:06:51.296Z,1.17
2022-09-30T09:09:57.099Z,1.83
2022-09-30T09:12:53.828Z,1.08
2022-09-30T09:15:30.013Z,1.48
2022-09-30T09:18:24.292Z,0.90
2022-09-30T09:21:11.503Z,1.17
2022-09-30T09:26:05.721Z,1.02
2022-09-30T09:28:53.757Z,0.95
2022-09-30T09:31:21.058Z,1.10
2022-09-30T09:33:48.094Z,1.30
2022-09-30T09:36:33.814Z,1.38
2022-09-30T09:39:09.789Z,1.17
2022-09-30T09:41:43.288Z,1.10
2022-09-30T09:44:28.232Z,0.75
2022-09-30T09:47:17.013Z,1.00
2022-09-30T09:49:56.900Z,0.52
2022-09-30T09:52:52.578Z,0.28
2022-09-30T09:58:19.395Z,0.30
2022-09-30T10:00:46.452Z,0.43
2022-09-30T10:03:19.981Z,0.20
2022-09-30T10:06:02.116Z,0.35
2022-09-30T10:08:31.252Z,0.50
2022-09-30T10:11:03.536Z,0.40
2022-09-30T10:13:31.725Z,0.63
2022-09-30T10:15:59.743Z,0.63
2022-09-30T10:18:31.674Z,0.57
2022-09-30T10:21:19.358Z,0.50
2022-09-30T10:23:46.461Z,0.40
2022-09-30T10:26:19.239Z,0.60
2022-09-30T10:28:50.256Z,0.40
2022-09-30T10:31:30.739Z,0.30
2022-09-30T10:34:01.565Z,0.35
2022-09-30T10:36:33.365Z,0.28
2022-09-30T10:39:06.522Z,0.30
2022-09-30T10:41:36.180Z,0.20
2022-09-30T10:44:05.283Z,0.25
2022-09-30T10:46:35.500Z,0.20
2022-09-30T10:49:28.291Z,0.10
2022-09-30T10:52:01.344Z,0.25
2022-09-30T10:54:50.326Z,0.17
2022-09-30T10:57:29.667Z,0.25
2022-09-30T11:00:12.760Z,0.25
2022-09-30T11:02:42.602Z,0.20
2022-09-30T11:05:19.343Z,0.40
2022-09-30T11:08:04.982Z,0.40
2022-09-30T11:10:46.002Z,0.20
2022-09-30T11:13:38.160Z,0.40
2022-09-30T11:16:34.665Z,0.40
2022-09-30T11:19:04.333Z,0.28
2022-09-30T11:21:36.094Z,0.35
2022-09-30T11:24:15.419Z,0.20
2022-09-30T11:26:50.221Z,0.20
2022-09-30T11:29:23.303Z,0.30
2022-09-30T11:32:05.567Z,0.20
2022-09-30T11:34:45.786Z,0.10
2022-09-30T11:37:34.779Z,0.10
2022-09-30T11:40:40.516Z,0.10
2022-09-30T11:43:10.561Z,0.10
2022-09-30T11:45:55.340Z,0.10
2022-09-30T11:48:45.413Z,0.35
2022-09-30T11:51:38.046Z,0.00
2022-09-30T11:54:42.606Z,0.20
2022-09-30T11:57:18.556Z,0.10
2022-09-30T11:59:59.179Z,0.10
2022-09-30T12:02:40.383Z,0.10
2022-09-30T12:05:31.392Z,0.08
2022-09-30T12:08:07.634Z,0.10
2022-09-30T12:13:20.931Z,0.10
2022-09-30T12:16:00.038Z,0.10
2022-09-30T12:18:35.901Z,0.10
2022-09-30T12:21:20.734Z,0.10
2022-09-30T12:24:02.428Z,0.00
2022-09-30T12:26:30.884Z,0.08
2022-09-30T12:30:15.034Z,0.10
2022-09-30T12:33:07.601Z,0.00
2022-09-30T12:35:49.975Z,0.10
2022-09-30T12:38:56.571Z,0.22
2022-09-30T12:41:42.338Z,0.00
2022-09-30T12:44:44.144Z,0.10
2022-09-30T12:47:31.687Z,0.10
2022-09-30T12:50:00.045Z,0.00
2022-09-30T12:53:27.155Z,0.10
2022-09-30T12:55:55.690Z,0.00
2022-09-30T12:58:31.151Z,0.00
2022-09-30T13:01:25.906Z,0.03
2022-09-30T13:04:01.419Z,0.00
2022-09-30T13:06:45.366Z,0.10
2022-09-30T13:09:45.772Z,0.00
2022-09-30T13:12:26.949Z,0.00
2022-09-30T13:15:21.676Z,0.00
2022-09-30T13:17:49.295Z,0.00
2022-09-30T13:20:57.353Z,0.00
2022-09-30T13:23:42.627Z,0.00
2022-09-30T13:26:29.855Z,0.00
2022-09-30T13:29:00.503Z,0.00
2022-09-30T13:31:32.701Z,0.00
2022-09-30T13:34:10.823Z,0.00
2022-09-30T13:37:07.335Z,0.00
2022-09-30T13:39:37.566Z,0.00
2022-09-30T13:42:19.436Z,0.00
2022-09-30T13:45:19.049Z,0.03
2022-09-30T13:48:14.105Z,0.05
2022-09-30T13:50:50.426Z,0.10
2022-09-30T13:53:42.097Z,0.00
2022-09-30T13:56:26.538Z,0.17
2022-09-30T13:59:02.525Z,0.10
2022-09-30T14:01:38.586Z,0.00
2022-09-30T14:04:25.841Z,0.00
2022-09-30T14:10:17.643Z,0.10
2022-09-30T14:13:27.943Z,0.10
2022-09-30T14:16:11.099Z,0.75
2022-09-30T14:19:05.296Z,0.00
2022-09-30T14:21:51.690Z,0.20
2022-09-30T14:24:37.274Z,0.10
2022-09-30T14:27:08.979Z,0.03
2022-09-30T14:29:43.925Z,0.10
2022-09-30T14:32:19.470Z,0.10
2022-09-30T14:34:48.410Z,0.00
2022-09-30T14:37:32.521Z,0.10
2022-09-30T14:40:00.823Z,0.00
2022-09-30T14:42:38.875Z,0.20
2022-09-30T14:45:10.206Z,0.17
2022-09-30T14:47:45.617Z,0.20
2022-09-30T14:50:24.532Z,0.00
2022-09-30T14:52:54.581Z,0.05
2022-09-30T14:55:25.938Z,0.00
2022-09-30T14:58:33.093Z,0.10
2022-09-30T15:01:11.019Z,0.00
2022-09-30T15:03:40.791Z,0.10
2022-09-30T15:06:20.897Z,0.10
2022-09-30T15:08:52.393Z,0.08
2022-09-30T15:11:26.315Z,0.00
2022-09-30T15:14:21.739Z,0.00
2022-09-30T15:16:54.160Z,0.10
2022-09-30T15:19:28.534Z,0.10
2022-09-30T15:22:03.229Z,0.10
2022-09-30T15:24:53.570Z,0.43
2022-09-30T15:27:38.060Z,0.20
2022-09-30T15:30:34.872Z,0.30
2022-09-30T15:33:12.960Z,0.22
2022-09-30T15:35:41.287Z,0.43
2022-09-30T15:38:21.537Z,0.30
2022-09-30T15:41:00.191Z,0.10
2022-09-30T15:43:37.219Z,0.30
2022-09-30T15:46:21.569Z,0.20
2022-09-30T15:48:55.081Z,0.32
2022-09-30T15:51:26.918Z,0.10
2022-09-30T15:53:58.221Z,0.10
2022-09-30T15:56:35.755Z,0.10
2022-09-30T15:59:07.917Z,0.20
2022-09-30T16:01:42.569Z,0.00
2022-09-30T16:04:15.921Z,0.13
2022-09-30T16:06:46.963Z,0.00
2022-09-30T16:09:25.278Z,0.20
2022-09-30T16:12:03.265Z,0.47
2022-09-30T16:14:43.076Z,0.10
2022-09-30T16:17:40.689Z,0.00
2022-09-30T16:20:15.709Z,0.13
2022-09-30T16:22:55.348Z,0.08
2022-09-30T16:25:34.426Z,0.10
2022-09-30T16:28:16.877Z,0.30
2022-09-30T16:30:49.960Z,0.00
2022-09-30T16:33:18.510Z,0.00
2022-09-30T16:35:58.290Z,0.00
2022-09-30T16:38:28.654Z,0.10
2022-09-30T16:41:00.704Z,0.00
2022-09-30T16:48:47.191Z,0.00
2022-09-30T16:51:17.128Z,0.10
2022-09-30T16:53:47.380Z,0.38
2022-09-30T16:56:19.612Z,0.17
2022-09-30T16:58:50.690Z,0.00
2022-09-30T17:01:21.737Z,0.10
2022-09-30T17:03:53.009Z,0.10
2022-09-30T17:06:21.065Z,0.98
2022-09-30T17:08:53.833Z,0.00
2022-09-30T17:11:32.047Z,0.40
2022-09-30T17:14:01.939Z,0.70
2022-09-30T17:16:33.124Z,0.05
2022-09-30T17:19:01.291Z,0.10
2022-09-30T17:21:33.622Z,0.00
2022-09-30T17:24:05.912Z,0.17
2022-09-30T17:26:36.451Z,0.20
2022-09-30T17:29:31.011Z,0.10
2022-09-30T17:31:55.957Z,0.00
2022-09-30T17:34:23.949Z,0.30
2022-09-30T17:36:51.825Z,0.00
2022-09-30T17:40:35.978Z,0.20
2022-09-30T17:43:11.735Z,0.10
2022-09-30T17:45:48.786Z,0.10
2022-09-30T17:48:18.877Z,0.00
2022-09-30T17:50:49.007Z,0.32
2022-09-30T17:53:19.015Z,0.08
2022-09-30T17:55:52.093Z,0.00
2022-09-30T17:58:22.368Z,0.00
2022-09-30T18:00:49.799Z,0.10
2022-09-30T18:03:17.487Z,0.00
2022-09-30T18:05:46.569Z,0.00
2022-09-30T18:08:21.730Z,0.00
2022-09-30T18:10:51.451Z,0.15
2022-09-30T18:13:27.810Z,0.10
2022-09-30T18:16:02.799Z,0.00
2022-09-30T18:18:32.627Z,0.22
2022-09-30T18:21:00.862Z,0.00
2022-09-30T18:23:30.163Z,0.08
2022-09-30T18:25:58.654Z,0.08
2022-09-30T18:28:35.686Z,0.00
2022-09-30T18:31:39.662Z,0.00
2022-09-30T18:34:09.243Z,0.10
2022-09-30T18:36:38.616Z,0.05
2022-09-30T18:39:07.922Z,0.00
2022-09-30T18:41:44.500Z,0.00
2022-09-30T18:44:14.908Z,0.00
2022-09-30T18:46:45.476Z,0.00
2022-09-30T18:49:13.694Z,0.00
2022-09-30T18:52:14.186Z,0.00
2022-09-30T18:54:41.660Z,0.10
2022-09-30T18:57:11.072Z,0.00
2022-09-30T18:59:38.472Z,0.00
2022-09-30T19:02:07.094Z,0.00
2022-09-30T19:04:35.823Z,0.00
2022-09-30T19:07:07.200Z,0.00
2022-09-30T19:09:34.223Z,0.00
2022-09-30T19:12:01.849Z,0.00
2022-09-30T19:14:30.688Z,0.00
2022-09-30T19:16:57.814Z,0.00
2022-09-30T19:19:24.878Z,0.00
2022-09-30T19:21:52.636Z,0.00
2022-09-30T19:24:27.453Z,0.00
2022-09-30T19:26:56.281Z,0.00
2022-09-30T19:29:25.676Z,0.00
2022-09-30T19:31:53.422Z,0.00
2022-09-30T19:34:31.144Z,0.00
2022-09-30T19:36:59.879Z,0.00
2022-09-30T19:39:37.137Z,0.13
2022-09-30T19:42:09.566Z,0.00
2022-09-30T19:44:38.350Z,0.00
2022-09-30T19:47:08.831Z,0.00
2022-09-30T19:49:36.711Z,0.45
2022-09-30T19:52:13.864Z,0.00
2022-09-30T19:54:44.398Z,0.00
2022-09-30T19:57:14.582Z,0.00
2022-09-30T19:59:41.981Z,0.00
2022-09-30T20:02:11.185Z,0.00
2022-09-30T20:04:41.953Z,0.00
2022-09-30T20:07:12.708Z,0.00
2022-09-30T20:09:39.850Z,0.00
2022-09-30T20:12:07.849Z,0.00
2022-09-30T20:14:53.448Z,0.00
2022-09-30T20:17:22.527Z,0.00
2022-09-30T20:20:09.763Z,0.00
2022-09-30T20:22:38.555Z,0.00
2022-09-30T20:25:06.087Z,0.00
2022-09-30T20:27:34.799Z,0.00
2022-09-30T20:30:02.181Z,0.00
2022-09-30T20:32:31.527Z,0.00
2022-09-30T20:35:01.649Z,0.00
2022-09-30T20:37:30.212Z,0.00
2022-09-30T20:39:58.072Z,0.00
2022-09-30T20:42:28.037Z,0.00
2022-09-30T20:45:03.229Z,0.00
2022-09-30T20:47:31.634Z,0.00
2022-09-30T20:49:58.814Z,0.00
2022-09-30T20:52:25.896Z,0.00
2022-09-30T20:54:53.488Z,0.00
2022-09-30T20:57:22.581Z,0.00
2022-09-30T20:59:50.423Z,0.00
2022-09-30T21:02:18.006Z,0.00
2022-09-30T21:04:47.569Z,0.00
2022-09-30T21:07:16.934Z,0.00
2022-09-30T21:09:46.498Z,0.00
2022-09-30T21:12:14.645Z,0.00
2022-09-30T21:14:42.095Z,0.00
2022-09-30T21:17:11.048Z,0.00
2022-09-30T21:19:38.262Z,0.00
2022-09-30T21:22:05.452Z,0.00
2022-09-30T21:24:37.071Z,0.00
2022-09-30T21:27:06.133Z,0.00
2022-09-30T21:29:33.960Z,0.00
2022-09-30T21:32:02.827Z,0.00
2022-09-30T21:34:32.218Z,0.00
2022-09-30T21:36:59.622Z,0.00
2022-09-30T21:39:28.027Z,0.00
2022-09-30T21:41:55.749Z,0.00
2022-09-30T21:44:26.195Z,0.00
2022-09-30T21:46:53.506Z,0.00
2022-09-30T21:49:28.172Z,0.00
2022-09-30T21:51:56.749Z,0.00
2022-09-30T21:54:24.478Z,0.00
2022-09-30T21:56:51.894Z,0.00
2022-09-30T21:59:19.638Z,0.00
2022-09-30T22:01:49.880Z,0.00
2022-09-30T22:04:17.284Z,0.00
2022-09-30T22:06:45.648Z,0.00
2022-09-30T22:09:14.071Z,0.00
2022-09-30T22:11:43.847Z,0.00
2022-09-30T22:14:11.117Z,0.00
2022-09-30T22:16:38.288Z,0.00
2022-09-30T22:19:07.307Z,0.03
2022-09-30T22:21:35.663Z,0.00
2022-09-30T22:24:04.292Z,0.00
2022-09-30T22:26:32.934Z,0.00
2022-09-30T22:29:03.630Z,0.00
2022-09-30T22:31:31.796Z,0.00
2022-09-30T22:34:19.674Z,0.00
2022-09-30T22:37:05.818Z,0.00
2022-09-30T22:39:32.950Z,0.00
2022-09-30T22:42:00.226Z,0.00
2022-09-30T22:44:31.901Z,0.00
2022-09-30T22:47:00.571Z,0.00
2022-09-30T22:49:28.268Z,0.00
2022-09-30T22:51:56.857Z,0.00
2022-09-30T22:54:25.911Z,0.00
2022-09-30T22:56:55.641Z,0.00
2022-09-30T22:59:50.183Z,0.00
2022-09-30T23:02:21.947Z,0.10
2022-09-30T23:04:51.693Z,0.00
2022-09-30T23:07:20.580Z,0.00
2022-09-30T23:09:50.414Z,0.00
2022-09-30T23:12:19.105Z,0.05
2022-09-30T23:14:47.367Z,0.00
2022-09-30T23:17:24.429Z,0.20
2022-09-30T23:22:20.196Z,0.15
2022-09-30T23:24:47.573Z,0.10
2022-09-30T23:27:19.338Z,0.00
2022-09-30T23:29:46.614Z,0.28
2022-09-30T23:32:13.827Z,0.10
2022-09-30T23:34:42.054Z,0.00
2022-09-30T23:37:11.253Z,0.20
2022-09-30T23:39:40.435Z,0.03
2022-09-30T23:42:07.709Z,0.10
2022-09-30T23:44:34.995Z,0.10
2022-09-30T23:47:23.662Z,0.13
2022-09-30T23:49:51.009Z,0.65
2022-09-30T23:52:18.322Z,0.20
2022-09-30T23:54:48.623Z,0.73
2022-09-30T23:57:15.903Z,0.10
2022-09-30T23:59:43.614Z,0.00
